sensor_id;sensor_type;location;lat;lon;timestamp;P1;durP1;ratioP1;P2;durP2;ratioP2
20832;SDS011;56075;51.264;7.150;2022-08-19T00:01:56;9.35;;;6.90;;
20832;SDS011;56075;51.264;7.150;2022-08-19T00:04:33;10.48;;;6.82;;
20832;SDS011;56075;51.264;7.150;2022-08-19T00:07:07;10.80;;;7.15;;
20832;SDS011;56075;51.264;7.150;2022-08-19T00:09:38;11.27;;;7.30;;
20832;SDS011;56075;51.264;7.150;2022-08-19T00:12:09;9.63;;;6.90;;
20832;SDS011;56075;51.264;7.150;2022-08-19T00:14:41;10.68;;;6.75;;
20832;SDS011;56075;51.264;7.150;2022-08-19T00:17:12;9.52;;;6.32;;
20832;SDS011;56075;51.264;7.150;2022-08-19T00:19:43;12.60;;;7.00;;
20832;SDS011;56075;51.264;7.150;2022-08-19T00:22:14;10.30;;;6.90;;
20832;SDS011;56075;51.264;7.150;2022-08-19T00:24:48;9.20;;;6.38;;
20832;SDS011;56075;51.264;7.150;2022-08-19T00:27:19;10.55;;;6.82;;
20832;SDS011;56075;51.264;7.150;2022-08-19T00:29:50;9.77;;;6.93;;
20832;SDS011;56075;51.264;7.150;2022-08-19T00:32:22;12.82;;;6.93;;
20832;SDS011;56075;51.264;7.150;2022-08-19T00:34:53;13.13;;;8.35;;
20832;SDS011;56075;51.264;7.150;2022-08-19T00:37:24;13.23;;;7.40;;
20832;SDS011;56075;51.264;7.150;2022-08-19T00:39:57;12.13;;;7.15;;
20832;SDS011;56075;51.264;7.150;2022-08-19T00:42:28;11.80;;;7.75;;
20832;SDS011;56075;51.264;7.150;2022-08-19T00:44:59;13.35;;;7.35;;
20832;SDS011;56075;51.264;7.150;2022-08-19T00:47:30;11.23;;;8.27;;
20832;SDS011;56075;51.264;7.150;2022-08-19T00:50:01;11.07;;;6.90;;
20832;SDS011;56075;51.264;7.150;2022-08-19T00:52:33;10.30;;;7.25;;
20832;SDS011;56075;51.264;7.150;2022-08-19T00:55:07;11.35;;;7.90;;
20832;SDS011;56075;51.264;7.150;2022-08-19T00:57:44;12.88;;;7.90;;
20832;SDS011;56075;51.264;7.150;2022-08-19T01:00:19;11.77;;;8.73;;
20832;SDS011;56075;51.264;7.150;2022-08-19T01:02:52;15.65;;;9.50;;
20832;SDS011;56075;51.264;7.150;2022-08-19T01:05:24;16.17;;;9.68;;
20832;SDS011;56075;51.264;7.150;2022-08-19T01:07:58;13.50;;;9.43;;
20832;SDS011;56075;51.264;7.150;2022-08-19T01:10:35;11.07;;;8.07;;
20832;SDS011;56075;51.264;7.150;2022-08-19T01:13:10;14.57;;;8.90;;
20832;SDS011;56075;51.264;7.150;2022-08-19T01:15:45;12.73;;;8.77;;
20832;SDS011;56075;51.264;7.150;2022-08-19T01:18:20;14.32;;;8.10;;
20832;SDS011;56075;51.264;7.150;2022-08-19T01:20:52;12.27;;;7.70;;
20832;SDS011;56075;51.264;7.150;2022-08-19T01:23:26;12.07;;;7.88;;
20832;SDS011;56075;51.264;7.150;2022-08-19T01:26:17;13.48;;;8.80;;
20832;SDS011;56075;51.264;7.150;2022-08-19T01:28:51;17.77;;;8.77;;
20832;SDS011;56075;51.264;7.150;2022-08-19T01:31:25;15.82;;;10.35;;
20832;SDS011;56075;51.264;7.150;2022-08-19T01:34:01;12.00;;;8.45;;
20832;SDS011;56075;51.264;7.150;2022-08-19T01:36:38;13.55;;;8.02;;
20832;SDS011;56075;51.264;7.150;2022-08-19T01:39:13;12.32;;;8.10;;
20832;SDS011;56075;51.264;7.150;2022-08-19T01:41:47;14.07;;;8.52;;
20832;SDS011;56075;51.264;7.150;2022-08-19T01:44:19;15.20;;;10.35;;
20832;SDS011;56075;51.264;7.150;2022-08-19T01:46:54;11.60;;;8.13;;
20832;SDS011;56075;51.264;7.150;2022-08-19T01:49:25;15.80;;;8.98;;
20832;SDS011;56075;51.264;7.150;2022-08-19T01:51:58;12.95;;;8.45;;
20832;SDS011;56075;51.264;7.150;2022-08-19T01:54:30;15.77;;;9.98;;
20832;SDS011;56075;51.264;7.150;2022-08-19T01:57:03;11.27;;;8.13;;
20832;SDS011;56075;51.264;7.150;2022-08-19T01:59:39;14.27;;;7.78;;
20832;SDS011;56075;51.264;7.150;2022-08-19T02:02:11;12.52;;;8.55;;
20832;SDS011;56075;51.264;7.150;2022-08-19T02:04:42;13.85;;;8.85;;
20832;SDS011;56075;51.264;7.150;2022-08-19T02:07:13;17.20;;;9.35;;
20832;SDS011;56075;51.264;7.150;2022-08-19T02:09:45;13.77;;;8.10;;
20832;SDS011;56075;51.264;7.150;2022-08-19T02:12:16;14.57;;;9.07;;
20832;SDS011;56075;51.264;7.150;2022-08-19T02:14:47;18.80;;;11.18;;
20832;SDS011;56075;51.264;7.150;2022-08-19T02:17:18;17.17;;;12.02;;
20832;SDS011;56075;51.264;7.150;2022-08-19T02:19:49;21.90;;;12.40;;
20832;SDS011;56075;51.264;7.150;2022-08-19T02:22:21;19.15;;;12.35;;
20832;SDS011;56075;51.264;7.150;2022-08-19T02:24:52;21.10;;;12.57;;
20832;SDS011;56075;51.264;7.150;2022-08-19T02:27:24;22.58;;;13.02;;
20832;SDS011;56075;51.264;7.150;2022-08-19T02:29:56;20.05;;;12.88;;
20832;SDS011;56075;51.264;7.150;2022-08-19T02:32:27;15.05;;;9.98;;
20832;SDS011;56075;51.264;7.150;2022-08-19T02:34:58;15.63;;;9.32;;
20832;SDS011;56075;51.264;7.150;2022-08-19T02:37:29;15.73;;;10.48;;
20832;SDS011;56075;51.264;7.150;2022-08-19T02:40:19;17.27;;;10.90;;
20832;SDS011;56075;51.264;7.150;2022-08-19T02:42:51;17.33;;;10.30;;
20832;SDS011;56075;51.264;7.150;2022-08-19T02:45:22;16.98;;;11.18;;
20832;SDS011;56075;51.264;7.150;2022-08-19T02:47:53;16.48;;;9.95;;
20832;SDS011;56075;51.264;7.150;2022-08-19T02:50:25;18.77;;;10.93;;
20832;SDS011;56075;51.264;7.150;2022-08-19T02:52:56;17.15;;;10.50;;
20832;SDS011;56075;51.264;7.150;2022-08-19T02:55:27;19.40;;;11.07;;
20832;SDS011;56075;51.264;7.150;2022-08-19T02:57:58;16.58;;;10.05;;
20832;SDS011;56075;51.264;7.150;2022-08-19T03:00:30;20.27;;;10.55;;
20832;SDS011;56075;51.264;7.150;2022-08-19T03:03:01;15.60;;;10.43;;
20832;SDS011;56075;51.264;7.150;2022-08-19T03:05:32;17.25;;;10.20;;
20832;SDS011;56075;51.264;7.150;2022-08-19T03:08:04;17.48;;;11.32;;
20832;SDS011;56075;51.264;7.150;2022-08-19T03:10:40;20.05;;;11.73;;
20832;SDS011;56075;51.264;7.150;2022-08-19T03:13:15;18.73;;;11.63;;
20832;SDS011;56075;51.264;7.150;2022-08-19T03:15:48;19.00;;;12.18;;
20832;SDS011;56075;51.264;7.150;2022-08-19T03:18:19;18.90;;;10.93;;
20832;SDS011;56075;51.264;7.150;2022-08-19T03:20:51;15.98;;;10.65;;
20832;SDS011;56075;51.264;7.150;2022-08-19T03:23:26;19.20;;;10.52;;
20832;SDS011;56075;51.264;7.150;2022-08-19T03:25:57;17.45;;;10.38;;
20832;SDS011;56075;51.264;7.150;2022-08-19T03:28:28;16.42;;;10.35;;
20832;SDS011;56075;51.264;7.150;2022-08-19T03:31:04;18.90;;;11.13;;
20832;SDS011;56075;51.264;7.150;2022-08-19T03:33:40;18.25;;;10.75;;
20832;SDS011;56075;51.264;7.150;2022-08-19T03:38:46;17.52;;;10.68;;
20832;SDS011;56075;51.264;7.150;2022-08-19T03:41:19;18.10;;;11.95;;
20832;SDS011;56075;51.264;7.150;2022-08-19T03:43:53;19.17;;;11.95;;
20832;SDS011;56075;51.264;7.150;2022-08-19T03:46:26;24.55;;;13.35;;
20832;SDS011;56075;51.264;7.150;2022-08-19T03:49:00;22.75;;;13.55;;
20832;SDS011;56075;51.264;7.150;2022-08-19T03:51:38;20.83;;;12.13;;
20832;SDS011;56075;51.264;7.150;2022-08-19T03:54:10;18.92;;;10.93;;
20832;SDS011;56075;51.264;7.150;2022-08-19T03:56:44;16.63;;;10.88;;
20832;SDS011;56075;51.264;7.150;2022-08-19T03:59:22;15.38;;;9.95;;
20832;SDS011;56075;51.264;7.150;2022-08-19T04:01:57;17.52;;;10.50;;
20832;SDS011;56075;51.264;7.150;2022-08-19T04:04:29;19.23;;;10.80;;
20832;SDS011;56075;51.264;7.150;2022-08-19T04:07:02;20.45;;;11.70;;
20832;SDS011;56075;51.264;7.150;2022-08-19T04:09:34;18.88;;;11.45;;
20832;SDS011;56075;51.264;7.150;2022-08-19T04:12:07;18.60;;;10.88;;
20832;SDS011;56075;51.264;7.150;2022-08-19T04:14:38;21.73;;;11.80;;
20832;SDS011;56075;51.264;7.150;2022-08-19T04:17:10;18.55;;;10.95;;
20832;SDS011;56075;51.264;7.150;2022-08-19T04:19:42;20.27;;;12.45;;
20832;SDS011;56075;51.264;7.150;2022-08-19T04:22:13;20.30;;;11.73;;
20832;SDS011;56075;51.264;7.150;2022-08-19T04:24:44;21.35;;;12.23;;
20832;SDS011;56075;51.264;7.150;2022-08-19T04:27:15;16.98;;;11.27;;
20832;SDS011;56075;51.264;7.150;2022-08-19T04:29:46;18.45;;;11.45;;
20832;SDS011;56075;51.264;7.150;2022-08-19T04:32:18;19.10;;;12.23;;
20832;SDS011;56075;51.264;7.150;2022-08-19T04:34:49;17.58;;;11.52;;
20832;SDS011;56075;51.264;7.150;2022-08-19T04:37:20;20.42;;;12.18;;
20832;SDS011;56075;51.264;7.150;2022-08-19T04:39:51;17.67;;;11.15;;
20832;SDS011;56075;51.264;7.150;2022-08-19T04:42:41;17.23;;;11.63;;
20832;SDS011;56075;51.264;7.150;2022-08-19T04:45:13;18.83;;;11.27;;
20832;SDS011;56075;51.264;7.150;2022-08-19T04:47:44;20.77;;;11.85;;
20832;SDS011;56075;51.264;7.150;2022-08-19T04:50:16;23.30;;;11.70;;
20832;SDS011;56075;51.264;7.150;2022-08-19T04:52:50;19.90;;;11.15;;
20832;SDS011;56075;51.264;7.150;2022-08-19T04:55:22;21.88;;;11.80;;
20832;SDS011;56075;51.264;7.150;2022-08-19T04:57:55;21.88;;;11.88;;
20832;SDS011;56075;51.264;7.150;2022-08-19T05:00:26;18.23;;;11.95;;
20832;SDS011;56075;51.264;7.150;2022-08-19T05:02:58;19.90;;;12.13;;
20832;SDS011;56075;51.264;7.150;2022-08-19T05:05:29;19.92;;;11.90;;
20832;SDS011;56075;51.264;7.150;2022-08-19T05:08:02;21.08;;;12.43;;
20832;SDS011;56075;51.264;7.150;2022-08-19T05:10:37;21.92;;;12.45;;
20832;SDS011;56075;51.264;7.150;2022-08-19T05:13:09;23.00;;;12.95;;
20832;SDS011;56075;51.264;7.150;2022-08-19T05:15:41;23.92;;;13.40;;
20832;SDS011;56075;51.264;7.150;2022-08-19T05:18:13;24.15;;;14.27;;
20832;SDS011;56075;51.264;7.150;2022-08-19T05:21:10;24.05;;;13.40;;
20832;SDS011;56075;51.264;7.150;2022-08-19T05:24:02;20.20;;;12.82;;
20832;SDS011;56075;51.264;7.150;2022-08-19T05:26:38;22.63;;;13.48;;
20832;SDS011;56075;51.264;7.150;2022-08-19T05:29:10;22.50;;;12.95;;
20832;SDS011;56075;51.264;7.150;2022-08-19T05:31:41;25.88;;;13.85;;
20832;SDS011;56075;51.264;7.150;2022-08-19T05:34:13;22.25;;;13.57;;
20832;SDS011;56075;51.264;7.150;2022-08-19T05:36:44;23.23;;;13.70;;
20832;SDS011;56075;51.264;7.150;2022-08-19T05:39:19;21.77;;;13.38;;
20832;SDS011;56075;51.264;7.150;2022-08-19T05:41:53;25.50;;;13.80;;
20832;SDS011;56075;51.264;7.150;2022-08-19T05:44:28;20.00;;;12.77;;
20832;SDS011;56075;51.264;7.150;2022-08-19T05:47:04;26.77;;;14.23;;
20832;SDS011;56075;51.264;7.150;2022-08-19T05:49:37;21.35;;;12.70;;
20832;SDS011;56075;51.264;7.150;2022-08-19T05:52:09;21.73;;;13.27;;
20832;SDS011;56075;51.264;7.150;2022-08-19T05:54:43;24.05;;;13.88;;
20832;SDS011;56075;51.264;7.150;2022-08-19T05:57:18;23.38;;;13.95;;
20832;SDS011;56075;51.264;7.150;2022-08-19T05:59:50;25.67;;;13.70;;
20832;SDS011;56075;51.264;7.150;2022-08-19T06:02:22;20.55;;;13.38;;
20832;SDS011;56075;51.264;7.150;2022-08-19T06:04:53;26.17;;;14.60;;
20832;SDS011;56075;51.264;7.150;2022-08-19T06:07:24;27.70;;;14.77;;
20832;SDS011;56075;51.264;7.150;2022-08-19T06:09:55;27.05;;;13.60;;
20832;SDS011;56075;51.264;7.150;2022-08-19T06:12:34;25.13;;;14.65;;
20832;SDS011;56075;51.264;7.150;2022-08-19T06:15:08;26.90;;;15.52;;
20832;SDS011;56075;51.264;7.150;2022-08-19T06:17:42;25.25;;;15.07;;
20832;SDS011;56075;51.264;7.150;2022-08-19T06:20:14;24.65;;;15.00;;
20832;SDS011;56075;51.264;7.150;2022-08-19T06:22:48;25.92;;;15.25;;
20832;SDS011;56075;51.264;7.150;2022-08-19T06:25:23;30.90;;;16.17;;
20832;SDS011;56075;51.264;7.150;2022-08-19T06:27:54;31.58;;;16.95;;
20832;SDS011;56075;51.264;7.150;2022-08-19T06:30:25;33.78;;;19.35;;
20832;SDS011;56075;51.264;7.150;2022-08-19T06:32:57;38.42;;;19.38;;
20832;SDS011;56075;51.264;7.150;2022-08-19T06:35:28;37.30;;;19.15;;
20832;SDS011;56075;51.264;7.150;2022-08-19T06:38:00;35.95;;;19.27;;
20832;SDS011;56075;51.264;7.150;2022-08-19T06:40:31;38.08;;;19.25;;
20832;SDS011;56075;51.264;7.150;2022-08-19T06:43:03;35.83;;;19.63;;
20832;SDS011;56075;51.264;7.150;2022-08-19T06:45:35;41.75;;;21.00;;
20832;SDS011;56075;51.264;7.150;2022-08-19T06:48:08;39.17;;;20.52;;
20832;SDS011;56075;51.264;7.150;2022-08-19T06:50:39;37.60;;;20.70;;
20832;SDS011;56075;51.264;7.150;2022-08-19T06:53:11;41.33;;;22.15;;
20832;SDS011;56075;51.264;7.150;2022-08-19T06:55:42;39.70;;;20.15;;
20832;SDS011;56075;51.264;7.150;2022-08-19T06:58:13;40.95;;;21.58;;
20832;SDS011;56075;51.264;7.150;2022-08-19T07:00:44;42.47;;;22.17;;
20832;SDS011;56075;51.264;7.150;2022-08-19T07:03:15;42.25;;;21.92;;
20832;SDS011;56075;51.264;7.150;2022-08-19T07:05:47;43.78;;;22.63;;
20832;SDS011;56075;51.264;7.150;2022-08-19T07:08:18;45.95;;;22.67;;
20832;SDS011;56075;51.264;7.150;2022-08-19T07:10:49;46.80;;;24.10;;
20832;SDS011;56075;51.264;7.150;2022-08-19T07:13:21;47.33;;;24.40;;
20832;SDS011;56075;51.264;7.150;2022-08-19T07:15:52;47.42;;;23.80;;
20832;SDS011;56075;51.264;7.150;2022-08-19T07:18:23;47.08;;;23.15;;
20832;SDS011;56075;51.264;7.150;2022-08-19T07:21:14;44.60;;;22.48;;
20832;SDS011;56075;51.264;7.150;2022-08-19T07:23:48;46.92;;;23.67;;
20832;SDS011;56075;51.264;7.150;2022-08-19T07:28:51;48.17;;;24.05;;
20832;SDS011;56075;51.264;7.150;2022-08-19T07:31:24;44.25;;;23.60;;
20832;SDS011;56075;51.264;7.150;2022-08-19T07:33:57;46.78;;;23.42;;
20832;SDS011;56075;51.264;7.150;2022-08-19T07:36:28;45.30;;;24.35;;
20832;SDS011;56075;51.264;7.150;2022-08-19T07:39:05;47.00;;;23.77;;
20832;SDS011;56075;51.264;7.150;2022-08-19T07:41:38;47.83;;;23.90;;
20832;SDS011;56075;51.264;7.150;2022-08-19T07:44:10;49.10;;;25.58;;
20832;SDS011;56075;51.264;7.150;2022-08-19T07:46:43;48.05;;;25.38;;
20832;SDS011;56075;51.264;7.150;2022-08-19T07:49:16;49.58;;;26.50;;
20832;SDS011;56075;51.264;7.150;2022-08-19T07:51:51;53.78;;;27.77;;
20832;SDS011;56075;51.264;7.150;2022-08-19T07:54:25;54.85;;;26.92;;
20832;SDS011;56075;51.264;7.150;2022-08-19T07:56:58;55.58;;;28.38;;
20832;SDS011;56075;51.264;7.150;2022-08-19T07:59:29;54.63;;;28.75;;
20832;SDS011;56075;51.264;7.150;2022-08-19T08:02:00;60.15;;;28.42;;
20832;SDS011;56075;51.264;7.150;2022-08-19T08:04:32;53.83;;;28.63;;
20832;SDS011;56075;51.264;7.150;2022-08-19T08:07:22;56.30;;;28.80;;
20832;SDS011;56075;51.264;7.150;2022-08-19T08:10:12;54.83;;;29.05;;
20832;SDS011;56075;51.264;7.150;2022-08-19T08:12:43;57.92;;;29.08;;
20832;SDS011;56075;51.264;7.150;2022-08-19T08:15:14;60.33;;;29.55;;
20832;SDS011;56075;51.264;7.150;2022-08-19T08:17:46;59.25;;;32.13;;
20832;SDS011;56075;51.264;7.150;2022-08-19T08:20:18;60.65;;;30.70;;
20832;SDS011;56075;51.264;7.150;2022-08-19T08:22:50;70.38;;;33.90;;
20832;SDS011;56075;51.264;7.150;2022-08-19T08:25:40;68.38;;;33.50;;
20832;SDS011;56075;51.264;7.150;2022-08-19T08:28:11;61.22;;;32.10;;
20832;SDS011;56075;51.264;7.150;2022-08-19T08:30:42;60.28;;;33.13;;
20832;SDS011;56075;51.264;7.150;2022-08-19T08:33:16;59.95;;;31.60;;
20832;SDS011;56075;51.264;7.150;2022-08-19T08:35:52;65.82;;;33.05;;
20832;SDS011;56075;51.264;7.150;2022-08-19T08:38:23;61.97;;;32.53;;
20832;SDS011;56075;51.264;7.150;2022-08-19T08:40:56;54.33;;;30.02;;
20832;SDS011;56075;51.264;7.150;2022-08-19T08:43:37;60.42;;;30.92;;
20832;SDS011;56075;51.264;7.150;2022-08-19T08:46:24;63.28;;;32.42;;
20832;SDS011;56075;51.264;7.150;2022-08-19T08:49:19;51.83;;;29.23;;
20832;SDS011;56075;51.264;7.150;2022-08-19T08:52:06;50.85;;;27.25;;
20832;SDS011;56075;51.264;7.150;2022-08-19T08:54:44;51.50;;;27.00;;
20832;SDS011;56075;51.264;7.150;2022-08-19T08:57:39;47.30;;;26.05;;
20832;SDS011;56075;51.264;7.150;2022-08-19T09:03:03;55.13;;;27.52;;
20832;SDS011;56075;51.264;7.150;2022-08-19T09:11:31;44.85;;;22.98;;
20832;SDS011;56075;51.264;7.150;2022-08-19T09:14:26;40.83;;;22.98;;
20832;SDS011;56075;51.264;7.150;2022-08-19T09:17:05;38.65;;;22.00;;
20832;SDS011;56075;51.264;7.150;2022-08-19T09:19:58;46.25;;;22.98;;
20832;SDS011;56075;51.264;7.150;2022-08-19T09:22:38;37.90;;;22.05;;
20832;SDS011;56075;51.264;7.150;2022-08-19T09:25:13;36.28;;;21.05;;
20832;SDS011;56075;51.264;7.150;2022-08-19T09:27:45;39.88;;;22.58;;
20832;SDS011;56075;51.264;7.150;2022-08-19T09:30:18;44.95;;;23.25;;
20832;SDS011;56075;51.264;7.150;2022-08-19T09:32:52;39.40;;;22.60;;
20832;SDS011;56075;51.264;7.150;2022-08-19T09:35:25;38.92;;;21.73;;
20832;SDS011;56075;51.264;7.150;2022-08-19T09:37:59;36.25;;;20.70;;
20832;SDS011;56075;51.264;7.150;2022-08-19T09:40:31;35.08;;;20.05;;
20832;SDS011;56075;51.264;7.150;2022-08-19T09:43:03;33.63;;;17.85;;
20832;SDS011;56075;51.264;7.150;2022-08-19T09:45:35;39.42;;;20.05;;
20832;SDS011;56075;51.264;7.150;2022-08-19T09:48:06;37.10;;;19.95;;
20832;SDS011;56075;51.264;7.150;2022-08-19T09:50:37;34.42;;;18.83;;
20832;SDS011;56075;51.264;7.150;2022-08-19T09:53:09;34.63;;;18.67;;
20832;SDS011;56075;51.264;7.150;2022-08-19T09:55:43;33.33;;;18.63;;
20832;SDS011;56075;51.264;7.150;2022-08-19T09:58:14;33.20;;;19.25;;
20832;SDS011;56075;51.264;7.150;2022-08-19T10:00:45;31.90;;;18.98;;
20832;SDS011;56075;51.264;7.150;2022-08-19T10:03:17;33.92;;;19.20;;
20832;SDS011;56075;51.264;7.150;2022-08-19T10:05:48;29.17;;;17.08;;
20832;SDS011;56075;51.264;7.150;2022-08-19T10:08:23;33.70;;;19.00;;
20832;SDS011;56075;51.264;7.150;2022-08-19T10:10:58;32.55;;;18.92;;
20832;SDS011;56075;51.264;7.150;2022-08-19T10:13:32;39.03;;;19.98;;
20832;SDS011;56075;51.264;7.150;2022-08-19T10:16:06;38.67;;;20.92;;
20832;SDS011;56075;51.264;7.150;2022-08-19T10:18:39;37.83;;;20.95;;
20832;SDS011;56075;51.264;7.150;2022-08-19T10:21:18;38.15;;;20.02;;
20832;SDS011;56075;51.264;7.150;2022-08-19T10:23:54;35.30;;;20.13;;
20832;SDS011;56075;51.264;7.150;2022-08-19T10:26:28;34.45;;;21.33;;
20832;SDS011;56075;51.264;7.150;2022-08-19T10:29:02;40.88;;;22.45;;
20832;SDS011;56075;51.264;7.150;2022-08-19T10:31:35;32.03;;;19.25;;
20832;SDS011;56075;51.264;7.150;2022-08-19T10:34:06;28.73;;;16.73;;
20832;SDS011;56075;51.264;7.150;2022-08-19T10:36:37;33.67;;;18.27;;
20832;SDS011;56075;51.264;7.150;2022-08-19T10:39:09;31.92;;;17.90;;
20832;SDS011;56075;51.264;7.150;2022-08-19T10:41:41;26.88;;;16.85;;
20832;SDS011;56075;51.264;7.150;2022-08-19T10:44:14;28.75;;;16.45;;
20832;SDS011;56075;51.264;7.150;2022-08-19T10:46:46;32.30;;;16.48;;
20832;SDS011;56075;51.264;7.150;2022-08-19T10:49:17;30.38;;;16.02;;
20832;SDS011;56075;51.264;7.150;2022-08-19T10:51:49;28.42;;;16.77;;
20832;SDS011;56075;51.264;7.150;2022-08-19T10:54:39;25.05;;;14.65;;
20832;SDS011;56075;51.264;7.150;2022-08-19T10:57:32;32.75;;;17.13;;
20832;SDS011;56075;51.264;7.150;2022-08-19T11:00:03;30.52;;;17.00;;
20832;SDS011;56075;51.264;7.150;2022-08-19T11:02:35;28.05;;;15.80;;
20832;SDS011;56075;51.264;7.150;2022-08-19T11:05:06;27.60;;;16.50;;
20832;SDS011;56075;51.264;7.150;2022-08-19T11:07:38;28.92;;;17.52;;
20832;SDS011;56075;51.264;7.150;2022-08-19T11:10:11;25.50;;;14.73;;
20832;SDS011;56075;51.264;7.150;2022-08-19T11:12:44;23.55;;;14.20;;
20832;SDS011;56075;51.264;7.150;2022-08-19T11:15:16;27.83;;;15.60;;
20832;SDS011;56075;51.264;7.150;2022-08-19T11:17:48;24.73;;;15.15;;
20832;SDS011;56075;51.264;7.150;2022-08-19T11:20:19;25.48;;;16.23;;
20832;SDS011;56075;51.264;7.150;2022-08-19T11:22:51;25.73;;;14.65;;
20832;SDS011;56075;51.264;7.150;2022-08-19T11:25:24;26.55;;;14.82;;
20832;SDS011;56075;51.264;7.150;2022-08-19T11:27:55;23.58;;;14.98;;
20832;SDS011;56075;51.264;7.150;2022-08-19T11:30:26;20.48;;;13.20;;
20832;SDS011;56075;51.264;7.150;2022-08-19T11:32:58;21.90;;;13.63;;
20832;SDS011;56075;51.264;7.150;2022-08-19T11:35:31;19.52;;;13.07;;
20832;SDS011;56075;51.264;7.150;2022-08-19T11:38:03;24.83;;;15.05;;
20832;SDS011;56075;51.264;7.150;2022-08-19T11:40:35;23.80;;;14.70;;
20832;SDS011;56075;51.264;7.150;2022-08-19T11:43:06;22.40;;;13.73;;
20832;SDS011;56075;51.264;7.150;2022-08-19T11:45:37;16.90;;;11.13;;
20832;SDS011;56075;51.264;7.150;2022-08-19T11:48:09;20.00;;;12.23;;
20832;SDS011;56075;51.264;7.150;2022-08-19T11:50:40;21.73;;;12.57;;
20832;SDS011;56075;51.264;7.150;2022-08-19T11:53:12;19.23;;;12.43;;
20832;SDS011;56075;51.264;7.150;2022-08-19T11:55:43;18.08;;;11.10;;
20832;SDS011;56075;51.264;7.150;2022-08-19T11:58:15;16.02;;;11.93;;
20832;SDS011;56075;51.264;7.150;2022-08-19T12:00:47;20.15;;;12.88;;
20832;SDS011;56075;51.264;7.150;2022-08-19T12:03:18;20.17;;;11.95;;
20832;SDS011;56075;51.264;7.150;2022-08-19T12:05:50;17.17;;;11.25;;
20832;SDS011;56075;51.264;7.150;2022-08-19T12:08:21;14.75;;;10.50;;
20832;SDS011;56075;51.264;7.150;2022-08-19T12:10:53;13.68;;;9.65;;
20832;SDS011;56075;51.264;7.150;2022-08-19T12:13:24;15.07;;;10.07;;
20832;SDS011;56075;51.264;7.150;2022-08-19T12:15:55;17.30;;;10.52;;
20832;SDS011;56075;51.264;7.150;2022-08-19T12:18:26;17.15;;;10.00;;
20832;SDS011;56075;51.264;7.150;2022-08-19T12:20:58;12.65;;;8.43;;
20832;SDS011;56075;51.264;7.150;2022-08-19T12:23:31;13.00;;;9.63;;
20832;SDS011;56075;51.264;7.150;2022-08-19T12:26:03;13.75;;;9.27;;
20832;SDS011;56075;51.264;7.150;2022-08-19T12:28:34;13.48;;;8.48;;
20832;SDS011;56075;51.264;7.150;2022-08-19T12:31:05;14.02;;;8.73;;
20832;SDS011;56075;51.264;7.150;2022-08-19T12:33:37;11.82;;;7.63;;
20832;SDS011;56075;51.264;7.150;2022-08-19T12:36:11;12.27;;;7.97;;
20832;SDS011;56075;51.264;7.150;2022-08-19T12:38:43;13.63;;;7.82;;
20832;SDS011;56075;51.264;7.150;2022-08-19T12:41:15;12.82;;;7.03;;
20832;SDS011;56075;51.264;7.150;2022-08-19T12:43:49;9.32;;;6.68;;
20832;SDS011;56075;51.264;7.150;2022-08-19T12:46:20;10.13;;;7.63;;
20832;SDS011;56075;51.264;7.150;2022-08-19T12:48:51;12.70;;;7.05;;
20832;SDS011;56075;51.264;7.150;2022-08-19T12:51:24;8.45;;;5.38;;
20832;SDS011;56075;51.264;7.150;2022-08-19T12:53:57;8.32;;;6.50;;
20832;SDS011;56075;51.264;7.150;2022-08-19T12:56:28;8.63;;;6.60;;
20832;SDS011;56075;51.264;7.150;2022-08-19T12:59:02;10.38;;;7.47;;
20832;SDS011;56075;51.264;7.150;2022-08-19T13:01:34;14.82;;;7.45;;
20832;SDS011;56075;51.264;7.150;2022-08-19T13:04:09;13.30;;;7.65;;
20832;SDS011;56075;51.264;7.150;2022-08-19T13:06:40;8.75;;;6.00;;
20832;SDS011;56075;51.264;7.150;2022-08-19T13:09:12;8.95;;;6.07;;
20832;SDS011;56075;51.264;7.150;2022-08-19T13:11:44;10.18;;;6.15;;
20832;SDS011;56075;51.264;7.150;2022-08-19T13:14:15;12.13;;;5.57;;
20832;SDS011;56075;51.264;7.150;2022-08-19T13:16:46;10.90;;;6.90;;
20832;SDS011;56075;51.264;7.150;2022-08-19T13:19:17;9.15;;;6.30;;
20832;SDS011;56075;51.264;7.150;2022-08-19T13:21:51;11.00;;;7.35;;
20832;SDS011;56075;51.264;7.150;2022-08-19T13:24:24;11.52;;;6.60;;
20832;SDS011;56075;51.264;7.150;2022-08-19T13:26:55;9.45;;;6.47;;
20832;SDS011;56075;51.264;7.150;2022-08-19T13:29:26;11.25;;;6.85;;
20832;SDS011;56075;51.264;7.150;2022-08-19T13:32:16;10.75;;;6.55;;
20832;SDS011;56075;51.264;7.150;2022-08-19T13:35:06;12.77;;;7.03;;
20832;SDS011;56075;51.264;7.150;2022-08-19T13:37:37;9.00;;;6.55;;
20832;SDS011;56075;51.264;7.150;2022-08-19T13:40:18;10.27;;;6.90;;
20832;SDS011;56075;51.264;7.150;2022-08-19T13:42:53;8.85;;;5.72;;
20832;SDS011;56075;51.264;7.150;2022-08-19T13:45:26;8.13;;;5.82;;
20832;SDS011;56075;51.264;7.150;2022-08-19T13:47:58;7.70;;;5.68;;
20832;SDS011;56075;51.264;7.150;2022-08-19T13:50:30;7.40;;;5.32;;
20832;SDS011;56075;51.264;7.150;2022-08-19T13:53:02;8.85;;;6.03;;
20832;SDS011;56075;51.264;7.150;2022-08-19T13:55:33;10.20;;;6.43;;
20832;SDS011;56075;51.264;7.150;2022-08-19T13:58:04;8.30;;;5.75;;
20832;SDS011;56075;51.264;7.150;2022-08-19T14:00:37;6.60;;;5.10;;
20832;SDS011;56075;51.264;7.150;2022-08-19T14:03:11;6.57;;;5.30;;
20832;SDS011;56075;51.264;7.150;2022-08-19T14:05:42;8.50;;;5.88;;
20832;SDS011;56075;51.264;7.150;2022-08-19T14:08:13;11.30;;;5.63;;
20832;SDS011;56075;51.264;7.150;2022-08-19T14:10:44;8.65;;;5.05;;
20832;SDS011;56075;51.264;7.150;2022-08-19T14:13:18;10.27;;;4.97;;
20832;SDS011;56075;51.264;7.150;2022-08-19T14:15:50;7.18;;;5.18;;
20832;SDS011;56075;51.264;7.150;2022-08-19T14:18:22;7.28;;;5.10;;
20832;SDS011;56075;51.264;7.150;2022-08-19T14:20:55;7.30;;;4.68;;
20832;SDS011;56075;51.264;7.150;2022-08-19T14:23:27;7.05;;;5.00;;
20832;SDS011;56075;51.264;7.150;2022-08-19T14:26:09;8.02;;;5.63;;
20832;SDS011;56075;51.264;7.150;2022-08-19T14:28:44;9.55;;;5.20;;
20832;SDS011;56075;51.264;7.150;2022-08-19T14:31:16;7.70;;;5.07;;
20832;SDS011;56075;51.264;7.150;2022-08-19T14:33:49;7.97;;;5.22;;
20832;SDS011;56075;51.264;7.150;2022-08-19T14:36:21;8.10;;;5.18;;
20832;SDS011;56075;51.264;7.150;2022-08-19T14:38:52;8.20;;;4.90;;
20832;SDS011;56075;51.264;7.150;2022-08-19T14:41:23;7.75;;;4.75;;
20832;SDS011;56075;51.264;7.150;2022-08-19T14:43:54;8.25;;;4.80;;
20832;SDS011;56075;51.264;7.150;2022-08-19T14:46:27;6.28;;;4.20;;
20832;SDS011;56075;51.264;7.150;2022-08-19T14:48:59;7.47;;;4.00;;
20832;SDS011;56075;51.264;7.150;2022-08-19T14:51:30;8.52;;;4.47;;
20832;SDS011;56075;51.264;7.150;2022-08-19T14:54:01;5.93;;;4.03;;
20832;SDS011;56075;51.264;7.150;2022-08-19T14:56:33;6.68;;;4.32;;
20832;SDS011;56075;51.264;7.150;2022-08-19T14:59:04;7.38;;;3.95;;
20832;SDS011;56075;51.264;7.150;2022-08-19T15:01:35;8.25;;;3.80;;
20832;SDS011;56075;51.264;7.150;2022-08-19T15:04:06;9.20;;;4.60;;
20832;SDS011;56075;51.264;7.150;2022-08-19T15:06:38;5.10;;;4.15;;
20832;SDS011;56075;51.264;7.150;2022-08-19T15:09:09;6.07;;;4.00;;
20832;SDS011;56075;51.264;7.150;2022-08-19T15:11:40;7.05;;;4.13;;
20832;SDS011;56075;51.264;7.150;2022-08-19T15:14:13;8.18;;;4.60;;
20832;SDS011;56075;51.264;7.150;2022-08-19T15:16:45;7.72;;;4.32;;
20832;SDS011;56075;51.264;7.150;2022-08-19T15:19:16;5.95;;;4.32;;